sensor_id;sensor_type;location;lat;lon;timestamp;temperature;humidity
15105;DHT22;7653;48.994;9.212;2023-02-16T00:00:31;0.10;92.90
15105;DHT22;7653;48.994;9.212;2023-02-16T00:02:57;0.10;92.70
15105;DHT22;7653;48.994;9.212;2023-02-16T00:07:52;0.20;92.60
15105;DHT22;7653;48.994;9.212;2023-02-16T00:10:18;-0.10;91.50
15105;DHT22;7653;48.994;9.212;2023-02-16T00:12:44;-0.20;91.80
15105;DHT22;7653;48.994;9.212;2023-02-16T00:15:28;-0.20;91.90
15105;DHT22;7653;48.994;9.212;2023-02-16T00:17:54;-0.10;92.00
15105;DHT22;7653;48.994;9.212;2023-02-16T00:20:22;-0.10;91.30
15105;DHT22;7653;48.994;9.212;2023-02-16T00:22:48;-0.10;90.90
15105;DHT22;7653;48.994;9.212;2023-02-16T00:25:13;-0.10;90.70
15105;DHT22;7653;48.994;9.212;2023-02-16T00:27:39;-0.20;89.10
15105;DHT22;7653;48.994;9.212;2023-02-16T00:30:15;-0.40;88.60
15105;DHT22;7653;48.994;9.212;2023-02-16T00:32:42;-0.50;88.50
15105;DHT22;7653;48.994;9.212;2023-02-16T00:35:18;-0.60;88.50
15105;DHT22;7653;48.994;9.212;2023-02-16T00:37:47;-0.40;89.10
15105;DHT22;7653;48.994;9.212;2023-02-16T00:40:16;-0.30;88.70
15105;DHT22;7653;48.994;9.212;2023-02-16T00:42:44;-0.30;87.00
15105;DHT22;7653;48.994;9.212;2023-02-16T00:45:16;-0.30;86.50
15105;DHT22;7653;48.994;9.212;2023-02-16T00:47:45;-0.40;84.30
15105;DHT22;7653;48.994;9.212;2023-02-16T00:50:29;-0.50;82.90
15105;DHT22;7653;48.994;9.212;2023-02-16T00:52:55;-0.60;82.40
15105;DHT22;7653;48.994;9.212;2023-02-16T00:55:32;-0.80;81.20
15105;DHT22;7653;48.994;9.212;2023-02-16T01:00:53;-1.00;83.10
15105;DHT22;7653;48.994;9.212;2023-02-16T01:03:25;-1.00;83.80
15105;DHT22;7653;48.994;9.212;2023-02-16T01:05:52;-0.90;84.60
15105;DHT22;7653;48.994;9.212;2023-02-16T01:08:38;-0.90;84.40
15105;DHT22;7653;48.994;9.212;2023-02-16T01:11:22;-0.90;82.60
15105;DHT22;7653;48.994;9.212;2023-02-16T01:13:50;-1.10;83.30
15105;DHT22;7653;48.994;9.212;2023-02-16T01:16:32;-1.20;83.70
15105;DHT22;7653;48.994;9.212;2023-02-16T01:18:59;-1.20;84.00
15105;DHT22;7653;48.994;9.212;2023-02-16T01:21:25;-1.20;83.90
15105;DHT22;7653;48.994;9.212;2023-02-16T01:23:50;-1.30;84.30
15105;DHT22;7653;48.994;9.212;2023-02-16T01:26:18;-1.30;85.50
15105;DHT22;7653;48.994;9.212;2023-02-16T01:28:44;-1.20;86.20
15105;DHT22;7653;48.994;9.212;2023-02-16T01:31:11;-1.20;86.60
15105;DHT22;7653;48.994;9.212;2023-02-16T01:33:37;-1.10;86.70
15105;DHT22;7653;48.994;9.212;2023-02-16T01:36:03;-1.00;87.00
15105;DHT22;7653;48.994;9.212;2023-02-16T01:38:29;-0.90;86.70
15105;DHT22;7653;48.994;9.212;2023-02-16T01:44:04;-1.20;84.70
15105;DHT22;7653;48.994;9.212;2023-02-16T01:46:45;-1.20;84.00
15105;DHT22;7653;48.994;9.212;2023-02-16T01:49:14;-1.20;83.70
15105;DHT22;7653;48.994;9.212;2023-02-16T02:02:24;-1.40;84.30
15105;DHT22;7653;48.994;9.212;2023-02-16T02:05:04;-1.20;83.60
15105;DHT22;7653;48.994;9.212;2023-02-16T02:08:04;-1.20;83.60
15105;DHT22;7653;48.994;9.212;2023-02-16T02:15:57;-1.40;83.00
15105;DHT22;7653;48.994;9.212;2023-02-16T02:18:23;-1.30;82.80
15105;DHT22;7653;48.994;9.212;2023-02-16T02:37:16;-1.20;81.10
15105;DHT22;7653;48.994;9.212;2023-02-16T02:42:24;-1.40;81.40
15105;DHT22;7653;48.994;9.212;2023-02-16T02:44:58;-1.30;82.60
15105;DHT22;7653;48.994;9.212;2023-02-16T02:47:41;-1.20;83.30
15105;DHT22;7653;48.994;9.212;2023-02-16T02:53:30;-1.50;80.70
15105;DHT22;7653;48.994;9.212;2023-02-16T02:55:59;-1.40;81.70
15105;DHT22;7653;48.994;9.212;2023-02-16T02:58:46;-1.30;84.10
15105;DHT22;7653;48.994;9.212;2023-02-16T03:01:32;-1.30;81.60
15105;DHT22;7653;48.994;9.212;2023-02-16T03:04:00;-1.40;81.20
15105;DHT22;7653;48.994;9.212;2023-02-16T03:06:30;-1.50;81.00
15105;DHT22;7653;48.994;9.212;2023-02-16T03:09:03;-1.40;81.00
15105;DHT22;7653;48.994;9.212;2023-02-16T03:11:30;-1.40;81.70
15105;DHT22;7653;48.994;9.212;2023-02-16T03:14:21;-1.50;80.00
15105;DHT22;7653;48.994;9.212;2023-02-16T03:16:58;-1.40;80.90
15105;DHT22;7653;48.994;9.212;2023-02-16T03:19:45;-1.30;82.10
15105;DHT22;7653;48.994;9.212;2023-02-16T03:22:32;-1.50;78.90
15105;DHT22;7653;48.994;9.212;2023-02-16T03:25:18;-1.40;80.50
15105;DHT22;7653;48.994;9.212;2023-02-16T03:28:05;-1.30;82.00
15105;DHT22;7653;48.994;9.212;2023-02-16T03:30:51;-1.30;81.00
15105;DHT22;7653;48.994;9.212;2023-02-16T03:33:18;-1.20;82.00
15105;DHT22;7653;48.994;9.212;2023-02-16T03:35:44;-1.10;82.80
15105;DHT22;7653;48.994;9.212;2023-02-16T03:38:11;-1.10;81.40
15105;DHT22;7653;48.994;9.212;2023-02-16T03:40:37;-1.10;81.20
15105;DHT22;7653;48.994;9.212;2023-02-16T03:43:06;-1.00;80.70
15105;DHT22;7653;48.994;9.212;2023-02-16T03:45:35;-1.10;79.40
15105;DHT22;7653;48.994;9.212;2023-02-16T03:48:02;-1.20;78.20
15105;DHT22;7653;48.994;9.212;2023-02-16T03:50:29;-1.20;79.10
15105;DHT22;7653;48.994;9.212;2023-02-16T03:52:55;-1.30;78.60
15105;DHT22;7653;48.994;9.212;2023-02-16T03:55:39;-1.50;78.00
15105;DHT22;7653;48.994;9.212;2023-02-16T03:58:07;-1.40;79.20
15105;DHT22;7653;48.994;9.212;2023-02-16T04:00:34;-1.50;79.90
15105;DHT22;7653;48.994;9.212;2023-02-16T04:03:00;-1.50;81.00
15105;DHT22;7653;48.994;9.212;2023-02-16T04:05:26;-1.40;81.90
15105;DHT22;7653;48.994;9.212;2023-02-16T04:07:51;-1.30;82.20
15105;DHT22;7653;48.994;9.212;2023-02-16T04:10:17;-1.30;81.60
15105;DHT22;7653;48.994;9.212;2023-02-16T04:12:43;-1.40;81.70
15105;DHT22;7653;48.994;9.212;2023-02-16T04:15:12;-1.30;82.40
15105;DHT22;7653;48.994;9.212;2023-02-16T04:17:38;-1.40;81.20
15105;DHT22;7653;48.994;9.212;2023-02-16T04:20:07;-1.50;81.50
15105;DHT22;7653;48.994;9.212;2023-02-16T04:22:33;-1.40;82.30
15105;DHT22;7653;48.994;9.212;2023-02-16T04:24:58;-1.30;83.10
15105;DHT22;7653;48.994;9.212;2023-02-16T04:27:24;-1.20;83.50
15105;DHT22;7653;48.994;9.212;2023-02-16T04:29:50;-1.10;84.60
15105;DHT22;7653;48.994;9.212;2023-02-16T04:32:15;-1.20;83.20
15105;DHT22;7653;48.994;9.212;2023-02-16T04:34:41;-1.20;83.60
15105;DHT22;7653;48.994;9.212;2023-02-16T04:37:07;-1.30;82.70
15105;DHT22;7653;48.994;9.212;2023-02-16T04:39:32;-1.30;82.80
15105;DHT22;7653;48.994;9.212;2023-02-16T04:41:58;-1.40;82.70
15105;DHT22;7653;48.994;9.212;2023-02-16T04:44:24;-1.40;82.30
15105;DHT22;7653;48.994;9.212;2023-02-16T04:46:49;-1.40;83.20
15105;DHT22;7653;48.994;9.212;2023-02-16T04:49:15;-1.30;83.50
15105;DHT22;7653;48.994;9.212;2023-02-16T04:51:41;-1.30;83.60
15105;DHT22;7653;48.994;9.212;2023-02-16T04:54:06;-1.30;84.90
15105;DHT22;7653;48.994;9.212;2023-02-16T04:56:32;-1.20;85.80
15105;DHT22;7653;48.994;9.212;2023-02-16T04:58:58;-1.20;86.60
15105;DHT22;7653;48.994;9.212;2023-02-16T05:01:26;-1.20;86.60
15105;DHT22;7653;48.994;9.212;2023-02-16T05:03:52;-1.40;84.70
15105;DHT22;7653;48.994;9.212;2023-02-16T05:06:18;-1.50;85.10
15105;DHT22;7653;48.994;9.212;2023-02-16T05:08:44;-1.60;85.00
15105;DHT22;7653;48.994;9.212;2023-02-16T05:11:10;-1.60;84.50
15105;DHT22;7653;48.994;9.212;2023-02-16T05:13:58;-1.60;85.40
15105;DHT22;7653;48.994;9.212;2023-02-16T05:16:44;-1.50;85.70
15105;DHT22;7653;48.994;9.212;2023-02-16T05:19:10;-1.50;86.10
15105;DHT22;7653;48.994;9.212;2023-02-16T05:21:36;-1.50;85.50
15105;DHT22;7653;48.994;9.212;2023-02-16T05:24:05;-1.50;84.50
15105;DHT22;7653;48.994;9.212;2023-02-16T05:26:32;-1.50;85.40
15105;DHT22;7653;48.994;9.212;2023-02-16T05:28:58;-1.50;85.50
15105;DHT22;7653;48.994;9.212;2023-02-16T05:31:24;-1.50;85.50
15105;DHT22;7653;48.994;9.212;2023-02-16T05:33:50;-1.50;85.30
15105;DHT22;7653;48.994;9.212;2023-02-16T05:36:16;-1.90;83.80
15105;DHT22;7653;48.994;9.212;2023-02-16T05:38:42;-1.80;84.80
15105;DHT22;7653;48.994;9.212;2023-02-16T05:41:08;-1.80;86.00
15105;DHT22;7653;48.994;9.212;2023-02-16T05:43:33;-1.70;86.80
15105;DHT22;7653;48.994;9.212;2023-02-16T05:45:59;-1.90;84.80
15105;DHT22;7653;48.994;9.212;2023-02-16T05:48:25;-1.90;86.40
15105;DHT22;7653;48.994;9.212;2023-02-16T05:50:53;-1.80;86.30
15105;DHT22;7653;48.994;9.212;2023-02-16T05:53:19;-1.80;86.80
15105;DHT22;7653;48.994;9.212;2023-02-16T05:55:44;-1.70;87.50
15105;DHT22;7653;48.994;9.212;2023-02-16T05:58:10;-1.60;87.60
15105;DHT22;7653;48.994;9.212;2023-02-16T06:00:36;-1.50;88.40
15105;DHT22;7653;48.994;9.212;2023-02-16T06:03:02;-1.60;87.40
15105;DHT22;7653;48.994;9.212;2023-02-16T06:05:28;-1.50;87.60
15105;DHT22;7653;48.994;9.212;2023-02-16T06:07:54;-1.60;86.70
15105;DHT22;7653;48.994;9.212;2023-02-16T06:10:19;-1.60;86.20
15105;DHT22;7653;48.994;9.212;2023-02-16T06:12:45;-1.70;85.40
15105;DHT22;7653;48.994;9.212;2023-02-16T06:15:11;-1.70;85.00
15105;DHT22;7653;48.994;9.212;2023-02-16T06:17:37;-1.80;84.10
15105;DHT22;7653;48.994;9.212;2023-02-16T06:20:03;-1.80;84.90
15105;DHT22;7653;48.994;9.212;2023-02-16T06:22:29;-1.70;86.40
15105;DHT22;7653;48.994;9.212;2023-02-16T06:24:54;-1.70;84.90
15105;DHT22;7653;48.994;9.212;2023-02-16T06:27:20;-1.80;84.30
15105;DHT22;7653;48.994;9.212;2023-02-16T06:29:46;-2.00;83.10
15105;DHT22;7653;48.994;9.212;2023-02-16T06:32:11;-2.00;84.00
15105;DHT22;7653;48.994;9.212;2023-02-16T06:34:37;-1.80;85.80
15105;DHT22;7653;48.994;9.212;2023-02-16T06:37:02;-1.70;84.50
15105;DHT22;7653;48.994;9.212;2023-02-16T06:39:28;-1.70;83.70
15105;DHT22;7653;48.994;9.212;2023-02-16T06:41:54;-1.70;84.20
15105;DHT22;7653;48.994;9.212;2023-02-16T06:44:20;-1.70;84.40
15105;DHT22;7653;48.994;9.212;2023-02-16T06:46:47;-1.60;84.90
15105;DHT22;7653;48.994;9.212;2023-02-16T06:49:15;-1.90;81.90
15105;DHT22;7653;48.994;9.212;2023-02-16T06:51:42;-2.00;83.20
15105;DHT22;7653;48.994;9.212;2023-02-16T06:54:09;-1.90;84.70
15105;DHT22;7653;48.994;9.212;2023-02-16T06:56:34;-1.80;85.90
15105;DHT22;7653;48.994;9.212;2023-02-16T06:59:00;-1.70;86.40
15105;DHT22;7653;48.994;9.212;2023-02-16T07:01:26;-1.60;87.60
15105;DHT22;7653;48.994;9.212;2023-02-16T07:03:53;-1.70;85.10
15105;DHT22;7653;48.994;9.212;2023-02-16T07:06:20;-1.70;85.90
15105;DHT22;7653;48.994;9.212;2023-02-16T07:08:46;-1.60;86.30
15105;DHT22;7653;48.994;9.212;2023-02-16T07:11:12;-1.50;86.30
15105;DHT22;7653;48.994;9.212;2023-02-16T07:13:37;-1.40;87.00
15105;DHT22;7653;48.994;9.212;2023-02-16T07:16:04;-1.40;86.80
15105;DHT22;7653;48.994;9.212;2023-02-16T07:18:30;-1.30;86.90
15105;DHT22;7653;48.994;9.212;2023-02-16T07:20:56;-1.20;85.80
15105;DHT22;7653;48.994;9.212;2023-02-16T07:23:22;-1.10;86.40
15105;DHT22;7653;48.994;9.212;2023-02-16T07:25:47;-1.10;85.30
15105;DHT22;7653;48.994;9.212;2023-02-16T07:28:13;-1.00;85.10
15105;DHT22;7653;48.994;9.212;2023-02-16T07:30:39;-1.00;85.10
15105;DHT22;7653;48.994;9.212;2023-02-16T07:33:05;-0.90;84.20
15105;DHT22;7653;48.994;9.212;2023-02-16T07:35:32;-0.80;84.00
15105;DHT22;7653;48.994;9.212;2023-02-16T07:37:57;-0.80;83.80
15105;DHT22;7653;48.994;9.212;2023-02-16T07:40:23;-0.70;83.80
15105;DHT22;7653;48.994;9.212;2023-02-16T07:42:49;-0.70;83.00
15105;DHT22;7653;48.994;9.212;2023-02-16T07:45:15;-0.60;82.70
15105;DHT22;7653;48.994;9.212;2023-02-16T07:47:41;-0.60;83.10
15105;DHT22;7653;48.994;9.212;2023-02-16T07:50:07;-0.60;83.10
15105;DHT22;7653;48.994;9.212;2023-02-16T07:52:33;-0.50;83.60
15105;DHT22;7653;48.994;9.212;2023-02-16T07:54:59;-0.30;84.00
15105;DHT22;7653;48.994;9.212;2023-02-16T07:57:26;-0.30;83.00
15105;DHT22;7653;48.994;9.212;2023-02-16T07:59:52;-0.10;81.60
15105;DHT22;7653;48.994;9.212;2023-02-16T08:02:19;-0.10;81.10
15105;DHT22;7653;48.994;9.212;2023-02-16T08:04:46;-0.10;80.80
15105;DHT22;7653;48.994;9.212;2023-02-16T08:07:16;0.00;80.70
15105;DHT22;7653;48.994;9.212;2023-02-16T08:09:42;0.10;80.60
15105;DHT22;7653;48.994;9.212;2023-02-16T08:12:12;0.20;81.20
15105;DHT22;7653;48.994;9.212;2023-02-16T08:14:38;0.30;81.60
15105;DHT22;7653;48.994;9.212;2023-02-16T08:17:05;0.30;81.70
15105;DHT22;7653;48.994;9.212;2023-02-16T08:19:32;0.40;82.60
15105;DHT22;7653;48.994;9.212;2023-02-16T08:21:59;0.50;82.40
15105;DHT22;7653;48.994;9.212;2023-02-16T08:24:25;0.70;82.80
15105;DHT22;7653;48.994;9.212;2023-02-16T08:26:51;0.80;82.10
15105;DHT22;7653;48.994;9.212;2023-02-16T08:29:18;0.90;81.70
15105;DHT22;7653;48.994;9.212;2023-02-16T08:31:45;1.10;81.10
15105;DHT22;7653;48.994;9.212;2023-02-16T08:34:13;1.30;81.30
15105;DHT22;7653;48.994;9.212;2023-02-16T08:36:41;1.30;81.30
15105;DHT22;7653;48.994;9.212;2023-02-16T08:39:17;1.50;81.20
15105;DHT22;7653;48.994;9.212;2023-02-16T08:41:44;1.60;80.50
15105;DHT22;7653;48.994;9.212;2023-02-16T08:44:12;1.70;79.60
15105;DHT22;7653;48.994;9.212;2023-02-16T08:46:41;1.80;78.50
15105;DHT22;7653;48.994;9.212;2023-02-16T08:49:08;1.90;77.00
15105;DHT22;7653;48.994;9.212;2023-02-16T08:51:40;2.00;75.50
15105;DHT22;7653;48.994;9.212;2023-02-16T08:54:06;2.10;74.10
15105;DHT22;7653;48.994;9.212;2023-02-16T08:56:33;2.20;73.00
15105;DHT22;7653;48.994;9.212;2023-02-16T08:59:00;2.30;72.70
15105;DHT22;7653;48.994;9.212;2023-02-16T09:01:26;2.40;71.50
15105;DHT22;7653;48.994;9.212;2023-02-16T09:03:52;2.50;70.10
15105;DHT22;7653;48.994;9.212;2023-02-16T09:06:20;2.50;69.70
15105;DHT22;7653;48.994;9.212;2023-02-16T09:08:50;2.70;69.50
15105;DHT22;7653;48.994;9.212;2023-02-16T09:11:17;2.80;68.40
15105;DHT22;7653;48.994;9.212;2023-02-16T09:13:44;2.90;67.60
15105;DHT22;7653;48.994;9.212;2023-02-16T09:16:13;2.90;68.20
15105;DHT22;7653;48.994;9.212;2023-02-16T09:18:40;3.10;68.00
15105;DHT22;7653;48.994;9.212;2023-02-16T09:21:08;3.20;67.70
15105;DHT22;7653;48.994;9.212;2023-02-16T09:23:40;3.30;67.00
15105;DHT22;7653;48.994;9.212;2023-02-16T09:26:07;3.40;66.20
15105;DHT22;7653;48.994;9.212;2023-02-16T09:28:35;3.60;64.90
15105;DHT22;7653;48.994;9.212;2023-02-16T09:31:08;3.70;64.90
15105;DHT22;7653;48.994;9.212;2023-02-16T09:33:34;3.90;63.50
15105;DHT22;7653;48.994;9.212;2023-02-16T09:36:04;3.90;62.10
15105;DHT22;7653;48.994;9.212;2023-02-16T09:38:29;4.10;62.90
15105;DHT22;7653;48.994;9.212;2023-02-16T09:40:55;4.20;61.70
15105;DHT22;7653;48.994;9.212;2023-02-16T09:43:48;4.40;61.70
15105;DHT22;7653;48.994;9.212;2023-02-16T09:46:19;4.50;60.00
15105;DHT22;7653;48.994;9.212;2023-02-16T09:48:46;4.70;58.10
15105;DHT22;7653;48.994;9.212;2023-02-16T09:51:20;4.80;57.40
15105;DHT22;7653;48.994;9.212;2023-02-16T09:53:56;5.10;56.70
15105;DHT22;7653;48.994;9.212;2023-02-16T09:56:45;5.20;54.90
15105;DHT22;7653;48.994;9.212;2023-02-16T10:07:40;5.70;50.60
15105;DHT22;7653;48.994;9.212;2023-02-16T10:10:12;5.80;49.90
15105;DHT22;7653;48.994;9.212;2023-02-16T10:12:44;6.00;49.00
15105;DHT22;7653;48.994;9.212;2023-02-16T10:15:16;6.20;48.20
15105;DHT22;7653;48.994;9.212;2023-02-16T10:20:20;6.40;47.00
15105;DHT22;7653;48.994;9.212;2023-02-16T10:23:15;6.60;46.80
15105;DHT22;7653;48.994;9.212;2023-02-16T10:25:55;6.80;46.20
15105;DHT22;7653;48.994;9.212;2023-02-16T10:31:12;7.00;44.00
15105;DHT22;7653;48.994;9.212;2023-02-16T10:33:41;7.10;43.50
15105;DHT22;7653;48.994;9.212;2023-02-16T10:39:15;7.40;43.10
15105;DHT22;7653;48.994;9.212;2023-02-16T10:41:48;7.60;41.30
15105;DHT22;7653;48.994;9.212;2023-02-16T10:44:22;7.80;39.80
15105;DHT22;7653;48.994;9.212;2023-02-16T10:47:01;7.90;39.80
15105;DHT22;7653;48.994;9.212;2023-02-16T10:49:30;8.10;40.00
15105;DHT22;7653;48.994;9.212;2023-02-16T10:51:58;8.30;38.70
15105;DHT22;7653;48.994;9.212;2023-02-16T10:54:27;8.40;37.40
15105;DHT22;7653;48.994;9.212;2023-02-16T10:57:00;8.50;37.50
15105;DHT22;7653;48.994;9.212;2023-02-16T10:59:43;8.60;36.50
15105;DHT22;7653;48.994;9.212;2023-02-16T11:04:46;8.80;35.00
15105;DHT22;7653;48.994;9.212;2023-02-16T11:07:21;9.00;34.80
15105;DHT22;7653;48.994;9.212;2023-02-16T11:09:52;9.20;35.10
15105;DHT22;7653;48.994;9.212;2023-02-16T11:12:29;9.40;33.40
15105;DHT22;7653;48.994;9.212;2023-02-16T11:17:24;9.60;32.30
15105;DHT22;7653;48.994;9.212;2023-02-16T11:19:57;9.70;31.30
15105;DHT22;7653;48.994;9.212;2023-02-16T11:24:50;9.80;30.90
15105;DHT22;7653;48.994;9.212;2023-02-16T11:27:22;9.90;31.40
15105;DHT22;7653;48.994;9.212;2023-02-16T11:29:48;10.10;29.00
15105;DHT22;7653;48.994;9.212;2023-02-16T11:32:16;10.30;28.60
15105;DHT22;7653;48.994;9.212;2023-02-16T11:34:46;10.30;28.70
15105;DHT22;7653;48.994;9.212;2023-02-16T11:37:31;10.40;27.50
15105;DHT22;7653;48.994;9.212;2023-02-16T11:40:23;10.40;27.80
15105;DHT22;7653;48.994;9.212;2023-02-16T11:42:52;10.60;27.00
15105;DHT22;7653;48.994;9.212;2023-02-16T11:45:32;10.80;25.10
15105;DHT22;7653;48.994;9.212;2023-02-16T11:48:07;10.90;24.60
15105;DHT22;7653;48.994;9.212;2023-02-16T11:50:39;11.10;23.90
15105;DHT22;7653;48.994;9.212;2023-02-16T11:55:35;11.40;23.50
15105;DHT22;7653;48.994;9.212;2023-02-16T12:09:43;12.20;20.00
15105;DHT22;7653;48.994;9.212;2023-02-16T12:23:14;12.90;19.80
15105;DHT22;7653;48.994;9.212;2023-02-16T12:28:26;12.90;17.90
15105;DHT22;7653;48.994;9.212;2023-02-16T12:31:42;12.70;18.00
15105;DHT22;7653;48.994;9.212;2023-02-16T12:40:03;13.10;17.20
15105;DHT22;7653;48.994;9.212;2023-02-16T12:45:35;13.50;16.70
15105;DHT22;7653;48.994;9.212;2023-02-16T12:50:51;13.40;16.60
15105;DHT22;7653;48.994;9.212;2023-02-16T12:53:44;13.50;16.70
15105;DHT22;7653;48.994;9.212;2023-02-16T12:56:13;13.60;16.50
15105;DHT22;7653;48.994;9.212;2023-02-16T12:58:45;13.30;16.60
15105;DHT22;7653;48.994;9.212;2023-02-16T13:01:17;13.30;16.60
15105;DHT22;7653;48.994;9.212;2023-02-16T13:04:06;13.50;16.70
15105;DHT22;7653;48.994;9.212;2023-02-16T13:12:53;14.00;17.00
15105;DHT22;7653;48.994;9.212;2023-02-16T13:15:29;14.10;16.20
15105;DHT22;7653;48.994;9.212;2023-02-16T13:18:11;14.10;16.30
15105;DHT22;7653;48.994;9.212;2023-02-16T13:20:44;14.20;16.00
15105;DHT22;7653;48.994;9.212;2023-02-16T13:28:50;14.90;14.90
15105;DHT22;7653;48.994;9.212;2023-02-16T13:47:44;16.30;11.90
15105;DHT22;7653;48.994;9.212;2023-02-16T13:52:46;15.30;13.70
15105;DHT22;7653;48.994;9.212;2023-02-16T13:55:34;15.10;13.50
15105;DHT22;7653;48.994;9.212;2023-02-16T13:58:26;15.00;13.50
15105;DHT22;7653;48.994;9.212;2023-02-16T14:00:53;15.00;13.50
15105;DHT22;7653;48.994;9.212;2023-02-16T14:05:53;14.80;13.30
15105;DHT22;7653;48.994;9.212;2023-02-16T14:08:24;14.60;13.20
15105;DHT22;7653;48.994;9.212;2023-02-16T14:18:55;15.30;12.40
15105;DHT22;7653;48.994;9.212;2023-02-16T14:24:00;15.50;11.90
15105;DHT22;7653;48.994;9.212;2023-02-16T14:26:27;15.40;12.30
15105;DHT22;7653;48.994;9.212;2023-02-16T14:29:00;15.40;12.10
15105;DHT22;7653;48.994;9.212;2023-02-16T14:31:37;14.90;11.40
15105;DHT22;7653;48.994;9.212;2023-02-16T14:34:18;14.60;12.20
15105;DHT22;7653;48.994;9.212;2023-02-16T14:39:37;14.50;12.30
15105;DHT22;7653;48.994;9.212;2023-02-16T14:42:12;14.50;12.20
15105;DHT22;7653;48.994;9.212;2023-02-16T14:47:36;14.40;12.20
15105;DHT22;7653;48.994;9.212;2023-02-16T14:50:44;14.40;12.50
15105;DHT22;7653;48.994;9.212;2023-02-16T14:58:59;14.40;12.90
15105;DHT22;7653;48.994;9.212;2023-02-16T15:01:26;14.40;11.80
15105;DHT22;7653;48.994;9.212;2023-02-16T15:03:54;14.30;12.20
15105;DHT22;7653;48.994;9.212;2023-02-16T15:06:32;14.40;12.50
15105;DHT22;7653;48.994;9.212;2023-02-16T15:09:02;14.30;12.90
15105;DHT22;7653;48.994;9.212;2023-02-16T15:14:08;14.20;12.90
15105;DHT22;7653;48.994;9.212;2023-02-16T15:16:38;14.20;12.90
15105;DHT22;7653;48.994;9.212;2023-02-16T15:19:10;14.20;12.90
15105;DHT22;7653;48.994;9.212;2023-02-16T15:21:36;14.20;13.50
15105;DHT22;7653;48.994;9.212;2023-02-16T15:24:02;14.10;12.90
15105;DHT22;7653;48.994;9.212;2023-02-16T15:26:33;14.00;12.80
15105;DHT22;7653;48.994;9.212;2023-02-16T15:29:20;14.10;12.90
15105;DHT22;7653;48.994;9.212;2023-02-16T15:31:47;14.10;12.90
15105;DHT22;7653;48.994;9.212;2023-02-16T15:34:37;14.10;12.90
15105;DHT22;7653;48.994;9.212;2023-02-16T15:37:23;14.10;12.90
15105;DHT22;7653;48.994;9.212;2023-02-16T15:39:49;14.10;12.90
15105;DHT22;7653;48.994;9.212;2023-02-16T15:42:24;14.20;13.00
15105;DHT22;7653;48.994;9.212;2023-02-16T15:44:52;14.10;12.90
15105;DHT22;7653;48.994;9.212;2023-02-16T15:47:23;14.10;12.90
15105;DHT22;7653;48.994;9.212;2023-02-16T15:49:50;14.10;12.90
15105;DHT22;7653;48.994;9.212;2023-02-16T15:52:26;14.00;12.90
15105;DHT22;7653;48.994;9.212;2023-02-16T15:54:54;13.90;13.40
15105;DHT22;7653;48.994;9.212;2023-02-16T15:59:58;13.80;13.50
15105;DHT22;7653;48.994;9.212;2023-02-16T16:04:58;13.70;14.00
15105;DHT22;7653;48.994;9.212;2023-02-16T16:09:55;13.60;14.10
15105;DHT22;7653;48.994;9.212;2023-02-16T16:12:22;13.60;13.90
15105;DHT22;7653;48.994;9.212;2023-02-16T16:14:50;13.60;14.40
15105;DHT22;7653;48.994;9.212;2023-02-16T16:17:22;13.50;14.80
15105;DHT22;7653;48.994;9.212;2023-02-16T16:19:48;13.50;15.00
15105;DHT22;7653;48.994;9.212;2023-02-16T16:22:37;13.50;14.90
15105;DHT22;7653;48.994;9.212;2023-02-16T16:28:04;13.40;15.20
15105;DHT22;7653;48.994;9.212;2023-02-16T16:30:35;13.20;15.80
15105;DHT22;7653;48.994;9.212;2023-02-16T16:33:06;13.20;16.30
15105;DHT22;7653;48.994;9.212;2023-02-16T16:35:48;13.20;16.50
15105;DHT22;7653;48.994;9.212;2023-02-16T16:38:32;13.10;16.40
15105;DHT22;7653;48.994;9.212;2023-02-16T16:41:02;12.90;16.90
15105;DHT22;7653;48.994;9.212;2023-02-16T16:43:34;12.90;17.30
15105;DHT22;7653;48.994;9.212;2023-02-16T16:48:41;12.90;17.60
15105;DHT22;7653;48.994;9.212;2023-02-16T16:51:39;12.90;18.00
15105;DHT22;7653;48.994;9.212;2023-02-16T16:54:31;12.50;19.30
15105;DHT22;7653;48.994;9.212;2023-02-16T16:56:58;12.40;19.80
15105;DHT22;7653;48.994;9.212;2023-02-16T16:59:24;12.20;20.30
15105;DHT22;7653;48.994;9.212;2023-02-16T17:01:49;12.20;20.50
15105;DHT22;7653;48.994;9.212;2023-02-16T17:04:17;12.30;20.70
15105;DHT22;7653;48.994;9.212;2023-02-16T17:06:42;12.30;20.00
15105;DHT22;7653;48.994;9.212;2023-02-16T17:09:10;12.00;20.30
15105;DHT22;7653;48.994;9.212;2023-02-16T17:11:37;11.90;21.20
15105;DHT22;7653;48.994;9.212;2023-02-16T17:14:23;11.90;21.00
15105;DHT22;7653;48.994;9.212;2023-02-16T17:16:50;11.80;21.60
15105;DHT22;7653;48.994;9.212;2023-02-16T17:19:20;11.80;21.90
15105;DHT22;7653;48.994;9.212;2023-02-16T17:21:46;11.80;21.80
15105;DHT22;7653;48.994;9.212;2023-02-16T17:24:15;11.80;21.70
15105;DHT22;7653;48.994;9.212;2023-02-16T17:26:41;11.90;21.20
15105;DHT22;7653;48.994;9.212;2023-02-16T17:29:07;11.90;21.10
15105;DHT22;7653;48.994;9.212;2023-02-16T17:31:33;12.00;21.10
15105;DHT22;7653;48.994;9.212;2023-02-16T17:33:59;11.70;22.30
15105;DHT22;7653;48.994;9.212;2023-02-16T17:36:26;11.60;22.50
15105;DHT22;7653;48.994;9.212;2023-02-16T17:38:52;11.70;21.90
15105;DHT22;7653;48.994;9.212;2023-02-16T17:41:24;11.80;21.60
15105;DHT22;7653;48.994;9.212;2023-02-16T17:43:50;11.80;21.80
15105;DHT22;7653;48.994;9.212;2023-02-16T17:46:17;11.80;21.90
15105;DHT22;7653;48.994;9.212;2023-02-16T17:48:43;11.80;22.00
15105;DHT22;7653;48.994;9.212;2023-02-16T17:51:14;11.80;21.70
15105;DHT22;7653;48.994;9.212;2023-02-16T17:53:40;11.80;21.20
15105;DHT22;7653;48.994;9.212;2023-02-16T17:56:10;11.80;21.30
15105;DHT22;7653;48.994;9.212;2023-02-16T17:58:36;11.70;21.80
15105;DHT22;7653;48.994;9.212;2023-02-16T18:01:02;11.70;22.00
15105;DHT22;7653;48.994;9.212;2023-02-16T18:03:28;11.70;22.20
15105;DHT22;7653;48.994;9.212;2023-02-16T18:05:54;11.60;23.10
15105;DHT22;7653;48.994;9.212;2023-02-16T18:08:19;11.30;23.40
15105;DHT22;7653;48.994;9.212;2023-02-16T18:10:49;11.30;24.50
15105;DHT22;7653;48.994;9.212;2023-02-16T18:13:15;11.30;24.80
15105;DHT22;7653;48.994;9.212;2023-02-16T18:15:43;11.30;25.00
15105;DHT22;7653;48.994;9.212;2023-02-16T18:18:10;11.00;26.40
15105;DHT22;7653;48.994;9.212;2023-02-16T18:20:36;10.90;27.20
15105;DHT22;7653;48.994;9.212;2023-02-16T18:23:02;10.90;27.90
15105;DHT22;7653;48.994;9.212;2023-02-16T18:25:29;10.70;29.00
15105;DHT22;7653;48.994;9.212;2023-02-16T18:27:54;10.80;29.60
15105;DHT22;7653;48.994;9.212;2023-02-16T18:30:20;10.70;29.70
15105;DHT22;7653;48.994;9.212;2023-02-16T18:32:46;10.60;31.10
15105;DHT22;7653;48.994;9.212;2023-02-16T18:35:13;10.50;31.00
15105;DHT22;7653;48.994;9.212;2023-02-16T18:37:39;10.60;32.70
15105;DHT22;7653;48.994;9.212;2023-02-16T18:40:08;10.70;31.20
15105;DHT22;7653;48.994;9.212;2023-02-16T18:42:35;10.80;31.30
15105;DHT22;7653;48.994;9.212;2023-02-16T18:45:01;10.80;31.30
15105;DHT22;7653;48.994;9.212;2023-02-16T18:47:27;10.90;30.60
15105;DHT22;7653;48.994;9.212;2023-02-16T18:49:52;10.80;30.00
15105;DHT22;7653;48.994;9.212;2023-02-16T18:52:18;10.80;30.50
15105;DHT22;7653;48.994;9.212;2023-02-16T18:54:44;10.80;31.30
15105;DHT22;7653;48.994;9.212;2023-02-16T18:57:09;10.70;32.20
15105;DHT22;7653;48.994;9.212;2023-02-16T18:59:35;10.70;33.10
15105;DHT22;7653;48.994;9.212;2023-02-16T19:02:01;10.30;38.10
15105;DHT22;7653;48.994;9.212;2023-02-16T19:04:27;10.40;38.60
15105;DHT22;7653;48.994;9.212;2023-02-16T19:06:53;10.30;38.90
15105;DHT22;7653;48.994;9.212;2023-02-16T19:09:19;10.30;40.90